sensor_id;sensor_type;location;lat;lon;timestamp;pressure;altitude;pressure_sealevel;temperature;humidity
63395;BME280;49531;-34.520;150.798;2023-02-28T00:01:32;100381.31;;;23.69;67.06
63395;BME280;49531;-34.520;150.798;2023-02-28T00:03:59;100390.25;;;23.75;66.82
63395;BME280;49531;-34.520;150.798;2023-02-28T00:06:27;100393.22;;;23.78;66.87
63395;BME280;49531;-34.520;150.798;2023-02-28T00:08:54;100375.75;;;23.79;66.98
63395;BME280;49531;-34.520;150.798;2023-02-28T00:11:21;100377.91;;;23.82;67.12
63395;BME280;49531;-34.520;150.798;2023-02-28T00:13:49;100372.38;;;23.87;67.00
63395;BME280;49531;-34.520;150.798;2023-02-28T00:16:21;100378.06;;;23.91;66.92
63395;BME280;49531;-34.520;150.798;2023-02-28T00:18:49;100375.59;;;23.94;66.92
63395;BME280;49531;-34.520;150.798;2023-02-28T00:21:19;100363.56;;;23.96;66.90
63395;BME280;49531;-34.520;150.798;2023-02-28T00:23:46;100366.53;;;23.99;67.15
63395;BME280;49531;-34.520;150.798;2023-02-28T00:26:13;100360.16;;;24.04;66.92
63395;BME280;49531;-34.520;150.798;2023-02-28T00:28:41;100361.19;;;24.08;67.37
63395;BME280;49531;-34.520;150.798;2023-02-28T00:31:08;100360.63;;;24.11;67.33
63395;BME280;49531;-34.520;150.798;2023-02-28T00:33:35;100344.53;;;24.09;67.13
63395;BME280;49531;-34.520;150.798;2023-02-28T00:36:07;100349.63;;;24.16;67.30
63395;BME280;49531;-34.520;150.798;2023-02-28T00:38:36;100345.22;;;24.20;66.90
63395;BME280;49531;-34.520;150.798;2023-02-28T00:41:04;100340.28;;;24.22;66.74
63395;BME280;49531;-34.520;150.798;2023-02-28T00:43:33;100326.63;;;24.22;67.00
63395;BME280;49531;-34.520;150.798;2023-02-28T00:46:01;100323.91;;;24.22;67.15
63395;BME280;49531;-34.520;150.798;2023-02-28T00:48:28;100326.59;;;24.27;67.09
63395;BME280;49531;-34.520;150.798;2023-02-28T00:50:55;100322.75;;;24.28;67.13
63395;BME280;49531;-34.520;150.798;2023-02-28T00:53:22;100318.03;;;24.34;67.50
63395;BME280;49531;-34.520;150.798;2023-02-28T00:55:50;100311.47;;;24.35;67.08
63395;BME280;49531;-34.520;150.798;2023-02-28T00:58:17;100309.25;;;24.37;67.34
63395;BME280;49531;-34.520;150.798;2023-02-28T01:00:45;100314.44;;;24.38;67.22
63395;BME280;49531;-34.520;150.798;2023-02-28T01:03:16;100315.13;;;24.44;67.00
63395;BME280;49531;-34.520;150.798;2023-02-28T01:05:44;100310.50;;;24.44;67.18
63395;BME280;49531;-34.520;150.798;2023-02-28T01:08:12;100303.91;;;24.45;67.20
63395;BME280;49531;-34.520;150.798;2023-02-28T01:10:40;100302.50;;;24.48;67.21
63395;BME280;49531;-34.520;150.798;2023-02-28T01:13:08;100295.66;;;24.50;66.86
63395;BME280;49531;-34.520;150.798;2023-02-28T01:15:35;100286.34;;;24.51;66.97
63395;BME280;49531;-34.520;150.798;2023-02-28T01:18:02;100280.59;;;24.53;67.10
63395;BME280;49531;-34.520;150.798;2023-02-28T01:20:29;100272.09;;;24.54;66.93
63395;BME280;49531;-34.520;150.798;2023-02-28T01:22:57;100271.50;;;24.57;66.79
63395;BME280;49531;-34.520;150.798;2023-02-28T01:25:24;100266.56;;;24.59;67.04
63395;BME280;49531;-34.520;150.798;2023-02-28T01:27:51;100256.66;;;24.64;66.84
63395;BME280;49531;-34.520;150.798;2023-02-28T01:30:18;100253.94;;;24.64;66.99
63395;BME280;49531;-34.520;150.798;2023-02-28T01:32:45;100254.75;;;24.64;66.67
63395;BME280;49531;-34.520;150.798;2023-02-28T01:35:12;100243.22;;;24.67;66.82
63395;BME280;49531;-34.520;150.798;2023-02-28T01:37:39;100242.63;;;24.70;66.64
63395;BME280;49531;-34.520;150.798;2023-02-28T01:40:08;100248.91;;;24.71;66.80
63395;BME280;49531;-34.520;150.798;2023-02-28T01:42:35;100242.34;;;24.72;66.72
63395;BME280;49531;-34.520;150.798;2023-02-28T01:45:16;100238.50;;;24.73;66.82
63395;BME280;49531;-34.520;150.798;2023-02-28T01:47:45;100221.28;;;24.72;67.03
63395;BME280;49531;-34.520;150.798;2023-02-28T01:50:18;100234.88;;;24.77;66.66
63395;BME280;49531;-34.520;150.798;2023-02-28T01:52:47;100230.22;;;24.78;66.82
63395;BME280;49531;-34.520;150.798;2023-02-28T01:55:17;100224.75;;;24.78;66.86
63395;BME280;49531;-34.520;150.798;2023-02-28T01:57:50;100220.91;;;24.79;66.64
63395;BME280;49531;-34.520;150.798;2023-02-28T02:00:21;100225.72;;;24.82;66.60
63395;BME280;49531;-34.520;150.798;2023-02-28T02:02:52;100214.50;;;24.83;66.55
63395;BME280;49531;-34.520;150.798;2023-02-28T02:05:23;100210.66;;;24.84;66.45
63395;BME280;49531;-34.520;150.798;2023-02-28T02:07:54;100198.63;;;24.85;66.67
63395;BME280;49531;-34.520;150.798;2023-02-28T02:10:33;100193.06;;;24.90;66.52
63395;BME280;49531;-34.520;150.798;2023-02-28T02:13:31;100184.56;;;24.92;66.94
63395;BME280;49531;-34.520;150.798;2023-02-28T02:16:28;100179.63;;;24.94;66.96
63395;BME280;49531;-34.520;150.798;2023-02-28T02:19:27;100164.34;;;24.93;67.03
63395;BME280;49531;-34.520;150.798;2023-02-28T02:22:28;100164.03;;;24.94;66.96
63395;BME280;49531;-34.520;150.798;2023-02-28T02:25:16;100167.00;;;24.98;67.44
63395;BME280;49531;-34.520;150.798;2023-02-28T02:28:00;100156.28;;;25.02;67.31
63395;BME280;49531;-34.520;150.798;2023-02-28T02:30:58;100158.69;;;25.03;67.36
63395;BME280;49531;-34.520;150.798;2023-02-28T02:36:39;100161.66;;;25.07;67.03
63395;BME280;49531;-34.520;150.798;2023-02-28T02:39:22;100157.19;;;25.11;66.80
63395;BME280;49531;-34.520;150.798;2023-02-28T02:41:59;100151.41;;;25.12;66.92
63395;BME280;49531;-34.520;150.798;2023-02-28T02:44:40;100140.47;;;25.12;66.70
63395;BME280;49531;-34.520;150.798;2023-02-28T02:47:13;100143.72;;;25.14;66.68
63395;BME280;49531;-34.520;150.798;2023-02-28T02:49:47;100139.88;;;25.15;66.94
63395;BME280;49531;-34.520;150.798;2023-02-28T02:52:20;100132.78;;;25.14;66.88
63395;BME280;49531;-34.520;150.798;2023-02-28T02:54:51;100128.34;;;25.18;66.76
63395;BME280;49531;-34.520;150.798;2023-02-28T02:57:24;100117.41;;;25.18;66.65
63395;BME280;49531;-34.520;150.798;2023-02-28T02:59:53;100115.16;;;25.20;66.28
63395;BME280;49531;-34.520;150.798;2023-02-28T03:02:21;100116.75;;;25.21;66.67
63395;BME280;49531;-34.520;150.798;2023-02-28T03:04:53;100107.94;;;25.24;66.33
63395;BME280;49531;-34.520;150.798;2023-02-28T03:07:22;100093.97;;;25.26;66.50
63395;BME280;49531;-34.520;150.798;2023-02-28T03:09:53;100083.53;;;25.28;66.65
63395;BME280;49531;-34.520;150.798;2023-02-28T03:12:40;100076.97;;;25.29;66.56
63395;BME280;49531;-34.520;150.798;2023-02-28T03:15:19;100086.97;;;25.34;66.59
63395;BME280;49531;-34.520;150.798;2023-02-28T03:18:03;100087.47;;;25.36;66.74
63395;BME280;49531;-34.520;150.798;2023-02-28T03:20:48;100080.91;;;25.37;66.74
63395;BME280;49531;-34.520;150.798;2023-02-28T03:23:38;100074.81;;;25.40;66.68
63395;BME280;49531;-34.520;150.798;2023-02-28T03:26:07;100062.44;;;25.42;66.42
63395;BME280;49531;-34.520;150.798;2023-02-28T03:28:49;100055.06;;;25.43;66.38
63395;BME280;49531;-34.520;150.798;2023-02-28T03:31:22;100044.63;;;25.45;66.50
63395;BME280;49531;-34.520;150.798;2023-02-28T03:34:08;100053.31;;;25.47;66.56
63395;BME280;49531;-34.520;150.798;2023-02-28T03:36:41;100053.31;;;25.47;66.58
63395;BME280;49531;-34.520;150.798;2023-02-28T03:39:16;100037.09;;;25.50;66.53
63395;BME280;49531;-34.520;150.798;2023-02-28T03:41:51;100043.38;;;25.51;66.31
63395;BME280;49531;-34.520;150.798;2023-02-28T03:44:29;100036.19;;;25.55;66.42
63395;BME280;49531;-34.520;150.798;2023-02-28T03:47:05;100033.44;;;25.55;66.02
63395;BME280;49531;-34.520;150.798;2023-02-28T03:49:43;100033.94;;;25.57;65.95
63395;BME280;49531;-34.520;150.798;2023-02-28T03:52:14;100035.56;;;25.58;66.09
63395;BME280;49531;-34.520;150.798;2023-02-28T03:54:50;100028.97;;;25.59;65.73
63395;BME280;49531;-34.520;150.798;2023-02-28T03:57:27;100024.28;;;25.59;65.71
63395;BME280;49531;-34.520;150.798;2023-02-28T04:00:04;100010.28;;;25.61;65.70
63395;BME280;49531;-34.520;150.798;2023-02-28T04:02:32;100008.06;;;25.63;65.45
63395;BME280;49531;-34.520;150.798;2023-02-28T04:05:00;100002.59;;;25.63;65.86
63395;BME280;49531;-34.520;150.798;2023-02-28T04:07:31;100004.22;;;25.64;65.64
63395;BME280;49531;-34.520;150.798;2023-02-28T04:09:58;99996.53;;;25.66;65.28
63395;BME280;49531;-34.520;150.798;2023-02-28T04:12:26;100000.88;;;25.67;65.46
63395;BME280;49531;-34.520;150.798;2023-02-28T04:14:53;99991.53;;;25.68;65.24
63395;BME280;49531;-34.520;150.798;2023-02-28T04:17:20;99991.53;;;25.68;65.44
63395;BME280;49531;-34.520;150.798;2023-02-28T04:19:47;99996.72;;;25.70;65.29
63395;BME280;49531;-34.520;150.798;2023-02-28T04:22:16;99984.97;;;25.69;65.01
63395;BME280;49531;-34.520;150.798;2023-02-28T04:24:44;99995.91;;;25.69;65.05
63395;BME280;49531;-34.520;150.798;2023-02-28T04:27:11;99994.78;;;25.70;64.90
63395;BME280;49531;-34.520;150.798;2023-02-28T04:29:38;99983.53;;;25.72;65.25
63395;BME280;49531;-34.520;150.798;2023-02-28T04:32:05;99984.34;;;25.72;64.88
63395;BME280;49531;-34.520;150.798;2023-02-28T04:34:33;99979.66;;;25.73;64.83
63395;BME280;49531;-34.520;150.798;2023-02-28T04:37:00;99980.47;;;25.73;64.81
63395;BME280;49531;-34.520;150.798;2023-02-28T04:39:27;99971.78;;;25.71;64.98
63395;BME280;49531;-34.520;150.798;2023-02-28T04:41:54;99977.44;;;25.75;64.81
63395;BME280;49531;-34.520;150.798;2023-02-28T04:44:23;99982.09;;;25.74;64.52
63395;BME280;49531;-34.520;150.798;2023-02-28T04:46:50;99982.09;;;25.74;64.46
63395;BME280;49531;-34.520;150.798;2023-02-28T04:49:17;99978.25;;;25.75;64.57
63395;BME280;49531;-34.520;150.798;2023-02-28T04:51:44;99968.72;;;25.73;64.09
63395;BME280;49531;-34.520;150.798;2023-02-28T04:54:11;99964.56;;;25.75;64.23
63395;BME280;49531;-34.520;150.798;2023-02-28T04:56:39;99968.91;;;25.76;64.65
63395;BME280;49531;-34.520;150.798;2023-02-28T04:59:06;99958.97;;;25.80;64.75
63395;BME280;49531;-34.520;150.798;2023-02-28T05:01:34;99962.19;;;25.82;64.66
63395;BME280;49531;-34.520;150.798;2023-02-28T05:04:03;99961.56;;;25.85;64.26
63395;BME280;49531;-34.520;150.798;2023-02-28T05:06:32;99960.94;;;25.88;64.39
63395;BME280;49531;-34.520;150.798;2023-02-28T05:08:59;99961.91;;;25.92;64.44
63395;BME280;49531;-34.520;150.798;2023-02-28T05:11:30;99953.41;;;25.94;64.18
63395;BME280;49531;-34.520;150.798;2023-02-28T05:14:02;99949.72;;;25.99;64.31
63395;BME280;49531;-34.520;150.798;2023-02-28T05:16:30;99947.44;;;26.01;64.15
63395;BME280;49531;-34.520;150.798;2023-02-28T05:18:58;99950.66;;;26.03;63.88
63395;BME280;49531;-34.520;150.798;2023-02-28T05:21:31;99931.19;;;26.04;63.84
63395;BME280;49531;-34.520;150.798;2023-02-28T05:24:00;99931.38;;;26.08;63.98
63395;BME280;49531;-34.520;150.798;2023-02-28T05:26:28;99928.31;;;26.09;63.80
63395;BME280;49531;-34.520;150.798;2023-02-28T05:28:56;99930.75;;;26.11;63.81
63395;BME280;49531;-34.520;150.798;2023-02-28T05:31:24;99928.50;;;26.13;63.50
63395;BME280;49531;-34.520;150.798;2023-02-28T05:33:51;99927.38;;;26.14;63.60
63395;BME280;49531;-34.520;150.798;2023-02-28T05:36:19;99916.91;;;26.16;63.67
63395;BME280;49531;-34.520;150.798;2023-02-28T05:38:48;99921.75;;;26.19;63.60
63395;BME280;49531;-34.520;150.798;2023-02-28T05:41:16;99914.03;;;26.21;63.39
63395;BME280;49531;-34.520;150.798;2023-02-28T05:43:43;99900.03;;;26.22;63.38
63395;BME280;49531;-34.520;150.798;2023-02-28T05:46:12;99900.53;;;26.24;63.47
63395;BME280;49531;-34.520;150.798;2023-02-28T05:48:40;99900.19;;;26.26;63.48
63395;BME280;49531;-34.520;150.798;2023-02-28T05:51:08;99899.06;;;26.27;63.41
63395;BME280;49531;-34.520;150.798;2023-02-28T05:53:36;99899.56;;;26.29;63.37
63395;BME280;49531;-34.520;150.798;2023-02-28T05:56:03;99898.44;;;26.30;63.14
63395;BME280;49531;-34.520;150.798;2023-02-28T05:58:31;99900.88;;;26.32;63.11
63395;BME280;49531;-34.520;150.798;2023-02-28T06:01:00;99899.44;;;26.34;63.21
63395;BME280;49531;-34.520;150.798;2023-02-28T06:03:45;99892.03;;;26.35;62.95
63395;BME280;49531;-34.520;150.798;2023-02-28T06:06:12;99899.94;;;26.36;63.06
63395;BME280;49531;-34.520;150.798;2023-02-28T06:08:39;99900.75;;;26.37;63.00
63395;BME280;49531;-34.520;150.798;2023-02-28T06:11:06;99901.22;;;26.39;62.71
63395;BME280;49531;-34.520;150.798;2023-02-28T06:13:34;99900.06;;;26.40;62.85
63395;BME280;49531;-34.520;150.798;2023-02-28T06:16:02;99889.94;;;26.40;62.64
63395;BME280;49531;-34.520;150.798;2023-02-28T06:18:30;99891.53;;;26.41;62.65
63395;BME280;49531;-34.520;150.798;2023-02-28T06:20:57;99886.06;;;26.41;62.85
63395;BME280;49531;-34.520;150.798;2023-02-28T06:23:24;99888.47;;;26.43;62.66
63395;BME280;49531;-34.520;150.798;2023-02-28T06:25:51;99886.56;;;26.43;62.77
63395;BME280;49531;-34.520;150.798;2023-02-28T06:28:19;99890.91;;;26.44;62.49
63395;BME280;49531;-34.520;150.798;2023-02-28T06:30:47;99872.06;;;26.43;62.66
63395;BME280;49531;-34.520;150.798;2023-02-28T06:33:14;99884.78;;;26.47;62.63
63395;BME280;49531;-34.520;150.798;2023-02-28T06:35:44;99879.63;;;26.46;62.49
63395;BME280;49531;-34.520;150.798;2023-02-28T06:38:13;99884.78;;;26.47;62.45
63395;BME280;49531;-34.520;150.798;2023-02-28T06:40:40;99881.72;;;26.49;62.64
63395;BME280;49531;-34.520;150.798;2023-02-28T06:43:07;99884.47;;;26.49;62.53
63395;BME280;49531;-34.520;150.798;2023-02-28T06:45:34;99875.13;;;26.50;62.37
63395;BME280;49531;-34.520;150.798;2023-02-28T06:48:02;99870.44;;;26.50;62.53
63395;BME280;49531;-34.520;150.798;2023-02-28T06:50:29;99880.59;;;26.50;62.34
63395;BME280;49531;-34.520;150.798;2023-02-28T06:52:58;99879.47;;;26.51;62.34
63395;BME280;49531;-34.520;150.798;2023-02-28T06:55:25;99883.03;;;26.51;62.36
63395;BME280;49531;-34.520;150.798;2023-02-28T06:57:52;99883.03;;;26.51;62.55
63395;BME280;49531;-34.520;150.798;2023-02-28T07:00:21;99876.41;;;26.52;62.22
63395;BME280;49531;-34.520;150.798;2023-02-28T07:02:48;99873.69;;;26.52;62.43
63395;BME280;49531;-34.520;150.798;2023-02-28T07:05:15;99878.34;;;26.52;62.43
63395;BME280;49531;-34.520;150.798;2023-02-28T07:07:42;99868.53;;;26.51;62.10
63395;BME280;49531;-34.520;150.798;2023-02-28T07:10:12;99872.88;;;26.52;62.10
63395;BME280;49531;-34.520;150.798;2023-02-28T07:12:43;99861.91;;;26.52;62.39
63395;BME280;49531;-34.520;150.798;2023-02-28T07:15:10;99864.66;;;26.52;62.15
63395;BME280;49531;-34.520;150.798;2023-02-28T07:17:37;99865.78;;;26.51;62.23
63395;BME280;49531;-34.520;150.798;2023-02-28T07:20:05;99870.94;;;26.52;62.07
63395;BME280;49531;-34.520;150.798;2023-02-28T07:22:32;99874.00;;;26.51;62.12
63395;BME280;49531;-34.520;150.798;2023-02-28T07:24:59;99872.06;;;26.51;62.00
63395;BME280;49531;-34.520;150.798;2023-02-28T07:27:26;99863.03;;;26.51;62.07
63395;BME280;49531;-34.520;150.798;2023-02-28T07:29:53;99872.88;;;26.52;62.08
63395;BME280;49531;-34.520;150.798;2023-02-28T07:32:21;99875.44;;;26.48;61.68
63395;BME280;49531;-34.520;150.798;2023-02-28T07:34:48;99874.16;;;26.37;61.34
63395;BME280;49531;-34.520;150.798;2023-02-28T07:37:15;99863.53;;;26.36;61.54
63395;BME280;49531;-34.520;150.798;2023-02-28T07:39:42;99874.16;;;26.37;61.40
63395;BME280;49531;-34.520;150.798;2023-02-28T07:42:09;99860.47;;;26.37;61.26
63395;BME280;49531;-34.520;150.798;2023-02-28T07:44:39;99860.00;;;26.35;60.99
63395;BME280;49531;-34.520;150.798;2023-02-28T07:47:08;99866.09;;;26.32;60.91
63395;BME280;49531;-34.520;150.798;2023-02-28T07:49:37;99862.84;;;26.30;61.07
63395;BME280;49531;-34.520;150.798;2023-02-28T07:52:06;99871.06;;;26.30;60.62
63395;BME280;49531;-34.520;150.798;2023-02-28T07:54:33;99870.56;;;26.28;60.70
63395;BME280;49531;-34.520;150.798;2023-02-28T07:57:00;99867.00;;;26.19;60.44
63395;BME280;49531;-34.520;150.798;2023-02-28T07:59:27;99865.69;;;26.08;60.18
63395;BME280;49531;-34.520;150.798;2023-02-28T08:01:57;99861.50;;;26.02;60.20
63395;BME280;49531;-34.520;150.798;2023-02-28T08:04:25;99870.19;;;25.95;59.77
63395;BME280;49531;-34.520;150.798;2023-02-28T08:06:53;99870.50;;;25.94;59.84
63395;BME280;49531;-34.520;150.798;2023-02-28T08:09:20;99875.00;;;25.89;60.07
63395;BME280;49531;-34.520;150.798;2023-02-28T08:11:47;99886.75;;;25.90;60.36
63395;BME280;49531;-34.520;150.798;2023-02-28T08:14:14;99874.00;;;25.85;60.57
63395;BME280;49531;-34.520;150.798;2023-02-28T08:16:41;99873.53;;;25.83;60.80
63395;BME280;49531;-34.520;150.798;2023-02-28T08:19:09;99870.94;;;25.78;61.01
63395;BME280;49531;-34.520;150.798;2023-02-28T08:21:36;99879.75;;;25.75;61.43
63395;BME280;49531;-34.520;150.798;2023-02-28T08:24:04;99884.25;;;25.71;61.68
63395;BME280;49531;-34.520;150.798;2023-02-28T08:26:31;99881.16;;;25.64;61.89
63395;BME280;49531;-34.520;150.798;2023-02-28T08:28:58;99872.75;;;25.60;62.08
63395;BME280;49531;-34.520;150.798;2023-02-28T08:31:25;99878.56;;;25.59;61.93
63395;BME280;49531;-34.520;150.798;2023-02-28T08:33:52;99880.31;;;25.55;62.21
63395;BME280;49531;-34.520;150.798;2023-02-28T08:36:22;99891.88;;;25.52;62.50
63395;BME280;49531;-34.520;150.798;2023-02-28T08:38:50;99881.56;;;25.49;62.64
63395;BME280;49531;-34.520;150.798;2023-02-28T08:41:17;99893.44;;;25.44;62.95
63395;BME280;49531;-34.520;150.798;2023-02-28T08:43:44;99890.38;;;25.46;62.89
63395;BME280;49531;-34.520;150.798;2023-02-28T08:46:12;99895.66;;;25.42;62.93
63395;BME280;49531;-34.520;150.798;2023-02-28T08:48:40;99902.88;;;25.38;62.85
63395;BME280;49531;-34.520;150.798;2023-02-28T08:51:10;99897.72;;;25.37;62.92
63395;BME280;49531;-34.520;150.798;2023-02-28T08:53:39;99903.31;;;25.32;63.02
63395;BME280;49531;-34.520;150.798;2023-02-28T08:56:09;99894.75;;;25.24;63.41
63395;BME280;49531;-34.520;150.798;2023-02-28T08:58:37;99895.53;;;25.16;63.84
63395;BME280;49531;-34.520;150.798;2023-02-28T09:01:10;99900.31;;;25.11;63.76
63395;BME280;49531;-34.520;150.798;2023-02-28T09:03:38;99899.00;;;25.08;64.15
63395;BME280;49531;-34.520;150.798;2023-02-28T09:06:07;99900.63;;;25.09;64.38
63395;BME280;49531;-34.520;150.798;2023-02-28T09:08:35;99892.41;;;25.09;64.24
63395;BME280;49531;-34.520;150.798;2023-02-28T09:11:02;99895.59;;;25.03;64.75
63395;BME280;49531;-34.520;150.798;2023-02-28T09:13:31;99916.03;;;25.05;64.57
63395;BME280;49531;-34.520;150.798;2023-02-28T09:16:01;99914.16;;;25.14;64.36
63395;BME280;49531;-34.520;150.798;2023-02-28T09:18:29;99921.09;;;25.20;64.11
63395;BME280;49531;-34.520;150.798;2023-02-28T09:20:56;99917.72;;;25.23;64.24
63395;BME280;49531;-34.520;150.798;2023-02-28T09:23:25;99922.88;;;25.25;63.75
63395;BME280;49531;-34.520;150.798;2023-02-28T09:25:54;99929.66;;;25.27;63.95
63395;BME280;49531;-34.520;150.798;2023-02-28T09:28:22;99936.75;;;25.29;63.95
63395;BME280;49531;-34.520;150.798;2023-02-28T09:30:51;99940.28;;;25.29;63.93
63395;BME280;49531;-34.520;150.798;2023-02-28T09:33:20;99949.28;;;25.30;63.80
63395;BME280;49531;-34.520;150.798;2023-02-28T09:35:49;99947.38;;;25.30;63.59
63395;BME280;49531;-34.520;150.798;2023-02-28T09:38:16;99941.09;;;25.30;64.02
63395;BME280;49531;-34.520;150.798;2023-02-28T09:40:51;99947.38;;;25.30;64.02
63395;BME280;49531;-34.520;150.798;2023-02-28T09:43:21;99947.38;;;25.30;63.72
63395;BME280;49531;-34.520;150.798;2023-02-28T09:45:57;99958.31;;;25.30;63.92
63395;BME280;49531;-34.520;150.798;2023-02-28T09:48:31;99958.31;;;25.30;63.95
63395;BME280;49531;-34.520;150.798;2023-02-28T09:51:04;99969.25;;;25.30;64.09
63395;BME280;49531;-34.520;150.798;2023-02-28T09:53:37;99973.91;;;25.30;64.02
63395;BME280;49531;-34.520;150.798;2023-02-28T09:56:11;99976.13;;;25.27;63.91
63395;BME280;49531;-34.520;150.798;2023-02-28T09:58:49;99980.47;;;25.29;63.89
63395;BME280;49531;-34.520;150.798;2023-02-28T10:01:28;99973.41;;;25.27;63.98
63395;BME280;49531;-34.520;150.798;2023-02-28T10:04:07;99974.50;;;25.26;64.01
63395;BME280;49531;-34.520;150.798;2023-02-28T10:06:46;99982.72;;;25.26;63.81
63395;BME280;49531;-34.520;150.798;2023-02-28T10:09:22;99979.47;;;25.24;63.73
63395;BME280;49531;-34.520;150.798;2023-02-28T10:11:52;99980.59;;;25.23;63.71
63395;BME280;49531;-34.520;150.798;2023-02-28T10:14:26;99977.88;;;25.23;63.95
63395;BME280;49531;-34.520;150.798;2023-02-28T10:16:55;99978.97;;;25.22;63.71
63395;BME280;49531;-34.520;150.798;2023-02-28T10:22:19;99983.34;;;25.23;63.48
63395;BME280;49531;-34.520;150.798;2023-02-28T10:24:51;99985.75;;;25.25;63.28
63395;BME280;49531;-34.520;150.798;2023-02-28T10:27:22;99993.34;;;25.28;63.07
63395;BME280;49531;-34.520;150.798;2023-02-28T10:29:52;99995.75;;;25.30;63.09
63395;BME280;49531;-34.520;150.798;2023-02-28T10:32:23;99997.38;;;25.31;63.40
63395;BME280;49531;-34.520;150.798;2023-02-28T10:35:14;100000.31;;;25.34;63.42
63395;BME280;49531;-34.520;150.798;2023-02-28T10:37:45;99988.56;;;25.34;63.19
63395;BME280;49531;-34.520;150.798;2023-02-28T10:40:33;99989.06;;;25.36;63.20
63395;BME280;49531;-34.520;150.798;2023-02-28T10:43:18;99990.69;;;25.37;63.10
63395;BME280;49531;-34.520;150.798;2023-02-28T10:46:02;99988.44;;;25.39;63.37
63395;BME280;49531;-34.520;150.798;2023-02-28T10:48:33;99987.63;;;25.38;63.31
63395;BME280;49531;-34.520;150.798;2023-02-28T10:51:01;99997.44;;;25.39;63.24
63395;BME280;49531;-34.520;150.798;2023-02-28T10:53:34;99993.09;;;25.38;62.95
63395;BME280;49531;-34.520;150.798;2023-02-28T10:56:06;100001.50;;;25.42;62.88
63395;BME280;49531;-34.520;150.798;2023-02-28T11:01:44;99997.63;;;25.43;63.20
63395;BME280;49531;-34.520;150.798;2023-02-28T11:04:33;99997.63;;;25.43;62.96
63395;BME280;49531;-34.520;150.798;2023-02-28T11:07:18;99999.25;;;25.44;62.97
63395;BME280;49531;-34.520;150.798;2023-02-28T11:09:51;100001.19;;;25.43;62.91
63395;BME280;49531;-34.520;150.798;2023-02-28T11:12:25;100004.72;;;25.44;63.09
63395;BME280;49531;-34.520;150.798;2023-02-28T11:14:59;100006.34;;;25.45;62.95
63395;BME280;49531;-34.520;150.798;2023-02-28T11:17:30;100004.72;;;25.44;62.76
63395;BME280;49531;-34.520;150.798;2023-02-28T11:20:04;100000.88;;;25.45;62.77
63395;BME280;49531;-34.520;150.798;2023-02-28T11:22:38;99998.13;;;25.45;62.75
63395;BME280;49531;-34.520;150.798;2023-02-28T11:25:07;99997.81;;;25.46;62.92
63395;BME280;49531;-34.520;150.798;2023-02-28T11:27:47;99995.09;;;25.46;62.89
63395;BME280;49531;-34.520;150.798;2023-02-28T11:30:26;100004.09;;;25.47;62.88
63395;BME280;49531;-34.520;150.798;2023-02-28T11:32:54;100001.38;;;25.47;62.91
63395;BME280;49531;-34.520;150.798;2023-02-28T11:35:33;100000.25;;;25.48;62.61
63395;BME280;49531;-34.520;150.798;2023-02-28T11:38:04;99998.63;;;25.47;62.70
63395;BME280;49531;-34.520;150.798;2023-02-28T11:40:50;100001.69;;;25.45;62.83
63395;BME280;49531;-34.520;150.798;2023-02-28T11:43:39;100006.84;;;25.47;62.62
63395;BME280;49531;-34.520;150.798;2023-02-28T11:46:25;100001.38;;;25.47;62.75
63395;BME280;49531;-34.520;150.798;2023-02-28T11:49:17;99982.22;;;25.47;62.94
63395;BME280;49531;-34.520;150.798;2023-02-28T11:51:59;99982.22;;;25.47;62.68
63395;BME280;49531;-34.520;150.798;2023-02-28T11:57:30;99967.44;;;25.48;62.84
63395;BME280;49531;-34.520;150.798;2023-02-28T12:00:11;99974.03;;;25.47;62.67
63395;BME280;49531;-34.520;150.798;2023-02-28T12:06:08;99961.47;;;25.46;62.69
63395;BME280;49531;-34.520;150.798;2023-02-28T12:09:00;99964.22;;;25.46;62.55
63395;BME280;49531;-34.520;150.798;2023-02-28T12:11:40;99959.06;;;25.44;62.37
63395;BME280;49531;-34.520;150.798;2023-02-28T12:17:22;99948.13;;;25.44;62.68
63395;BME280;49531;-34.520;150.798;2023-02-28T12:20:11;99955.19;;;25.45;62.35
63395;BME280;49531;-34.520;150.798;2023-02-28T12:23:02;99944.56;;;25.44;62.45
63395;BME280;49531;-34.520;150.798;2023-02-28T12:26:00;99938.28;;;25.43;62.31
63395;BME280;49531;-34.520;150.798;2023-02-28T12:28:34;99929.28;;;25.43;62.38
63395;BME280;49531;-34.520;150.798;2023-02-28T12:31:08;99934.75;;;25.43;62.25
63395;BME280;49531;-34.520;150.798;2023-02-28T12:33:40;99927.66;;;25.42;62.66
63395;BME280;49531;-34.520;150.798;2023-02-28T12:36:13;99924.13;;;25.41;62.27
63395;BME280;49531;-34.520;150.798;2023-02-28T12:38:49;99920.59;;;25.41;62.66
63395;BME280;49531;-34.520;150.798;2023-02-28T12:41:25;99917.84;;;25.41;62.68
63395;BME280;49531;-34.520;150.798;2023-02-28T12:44:03;99914.63;;;25.39;62.58
63395;BME280;49531;-34.520;150.798;2023-02-28T12:46:39;99917.34;;;25.39;62.25
63395;BME280;49531;-34.520;150.798;2023-02-28T12:49:13;99916.25;;;25.40;62.59
63395;BME280;49531;-34.520;150.798;2023-02-28T12:51:44;99918.47;;;25.38;62.75
63395;BME280;49531;-34.520;150.798;2023-02-28T12:54:29;99916.56;;;25.38;62.67
63395;BME280;49531;-34.520;150.798;2023-02-28T12:57:23;99909.78;;;25.36;62.37
63395;BME280;49531;-34.520;150.798;2023-02-28T12:59:56;99910.28;;;25.38;62.49
63395;BME280;49531;-34.520;150.798;2023-02-28T13:05:49;99905.94;;;25.37;62.51
63395;BME280;49531;-34.520;150.798;2023-02-28T13:08:59;99898.84;;;25.36;62.51
63395;BME280;49531;-34.520;150.798;2023-02-28T13:11:28;99892.56;;;25.35;62.49